sensor_id;sensor_type;location;lat;lon;timestamp;pressure;altitude;pressure_sealevel;temperature;humidity
57904;BME280;43720;47.462;19.030;2022-09-06T03:54:43;100897.34;;;17.35;76.27
57904;BME280;43720;47.462;19.030;2022-09-06T03:57:45;100893.81;;;17.30;75.88
57904;BME280;43720;47.462;19.030;2022-09-06T04:00:47;100907.13;;;17.13;76.58
57904;BME280;43720;47.462;19.030;2022-09-06T04:03:50;100911.53;;;17.12;77.40
57904;BME280;43720;47.462;19.030;2022-09-06T04:06:52;100904.44;;;17.21;76.32
57904;BME280;43720;47.462;19.030;2022-09-06T04:09:54;100901.72;;;17.34;75.21
57904;BME280;43720;47.462;19.030;2022-09-06T04:12:56;100908.75;;;17.40;75.51
57904;BME280;43720;47.462;19.030;2022-09-06T04:15:59;100899.00;;;17.51;73.95
57904;BME280;43720;47.462;19.030;2022-09-06T04:19:01;100894.47;;;17.76;71.31
57904;BME280;43720;47.462;19.030;2022-09-06T04:22:05;100899.66;;;17.93;70.85
57904;BME280;43720;47.462;19.030;2022-09-06T04:25:07;100903.09;;;18.03;69.64
57904;BME280;43720;47.462;19.030;2022-09-06T04:28:10;100902.22;;;18.02;68.65
57904;BME280;43720;47.462;19.030;2022-09-06T04:31:12;100903.09;;;18.04;68.04
57904;BME280;43720;47.462;19.030;2022-09-06T04:34:14;100902.19;;;18.05;67.70
57904;BME280;43720;47.462;19.030;2022-09-06T04:37:17;100919.00;;;17.98;69.31
57904;BME280;43720;47.462;19.030;2022-09-06T04:40:21;100911.03;;;18.04;68.13
57904;BME280;43720;47.462;19.030;2022-09-06T04:43:23;100907.50;;;18.02;68.08
57904;BME280;43720;47.462;19.030;2022-09-06T04:46:28;100910.22;;;17.93;68.55
57904;BME280;43720;47.462;19.030;2022-09-06T04:49:30;100903.12;;;18.01;68.63
57904;BME280;43720;47.462;19.030;2022-09-06T04:52:33;100901.34;;;18.00;68.02
57904;BME280;43720;47.462;19.030;2022-09-06T04:55:35;100902.22;;;18.02;67.11
57904;BME280;43720;47.462;19.030;2022-09-06T04:58:38;100903.03;;;18.07;66.38
57904;BME280;43720;47.462;19.030;2022-09-06T05:01:40;100895.13;;;18.09;65.96
57904;BME280;43720;47.462;19.030;2022-09-06T05:04:42;100890.69;;;18.08;65.95
57904;BME280;43720;47.462;19.030;2022-09-06T05:07:44;100886.34;;;17.99;66.83
57904;BME280;43720;47.462;19.030;2022-09-06T05:10:50;100889.88;;;18.04;66.46
57904;BME280;43720;47.462;19.030;2022-09-06T05:13:52;100892.53;;;18.00;65.60
57904;BME280;43720;47.462;19.030;2022-09-06T05:16:54;100902.22;;;17.99;67.72
57904;BME280;43720;47.462;19.030;2022-09-06T05:19:56;100903.22;;;17.86;68.38
57904;BME280;43720;47.462;19.030;2022-09-06T05:22:59;100904.13;;;17.80;68.64
57904;BME280;43720;47.462;19.030;2022-09-06T05:26:02;100903.25;;;17.80;69.26
57904;BME280;43720;47.462;19.030;2022-09-06T05:29:04;100905.88;;;17.86;68.49
57904;BME280;43720;47.462;19.030;2022-09-06T05:32:07;100899.69;;;17.84;68.56
57904;BME280;43720;47.462;19.030;2022-09-06T05:35:09;100898.75;;;17.91;68.42
57904;BME280;43720;47.462;19.030;2022-09-06T05:38:11;100904.06;;;17.91;67.68
57904;BME280;43720;47.462;19.030;2022-09-06T05:41:13;100896.12;;;17.91;66.39
57904;BME280;43720;47.462;19.030;2022-09-06T05:44:16;100905.78;;;17.98;67.87
57904;BME280;43720;47.462;19.030;2022-09-06T05:47:18;100904.00;;;17.99;66.73
57904;BME280;43720;47.462;19.030;2022-09-06T05:50:20;100908.41;;;18.00;66.72
57904;BME280;43720;47.462;19.030;2022-09-06T05:53:22;100908.22;;;18.23;65.70
57904;BME280;43720;47.462;19.030;2022-09-06T05:56:25;100903.88;;;18.17;65.31
57904;BME280;43720;47.462;19.030;2022-09-06T05:59:27;100901.97;;;18.33;64.00
57904;BME280;43720;47.462;19.030;2022-09-06T06:02:29;100903.66;;;18.40;64.86
57904;BME280;43720;47.462;19.030;2022-09-06T06:05:32;100904.50;;;18.42;62.48
57904;BME280;43720;47.462;19.030;2022-09-06T06:08:34;100900.94;;;18.48;62.23
57904;BME280;43720;47.462;19.030;2022-09-06T06:11:36;100903.41;;;18.65;62.67
57904;BME280;43720;47.462;19.030;2022-09-06T06:14:39;100896.28;;;18.73;61.80
57904;BME280;43720;47.462;19.030;2022-09-06T06:17:41;100889.22;;;18.75;56.07
57904;BME280;43720;47.462;19.030;2022-09-06T06:20:43;100897.06;;;18.86;57.87
57904;BME280;43720;47.462;19.030;2022-09-06T06:23:49;100897.78;;;18.98;55.60
57904;BME280;43720;47.462;19.030;2022-09-06T06:26:51;100901.28;;;19.02;54.58
57904;BME280;43720;47.462;19.030;2022-09-06T06:29:54;100896.75;;;19.10;54.75
57904;BME280;43720;47.462;19.030;2022-09-06T06:32:56;100894.09;;;19.09;52.94
57904;BME280;43720;47.462;19.030;2022-09-06T06:36:02;100898.47;;;19.14;51.96
57904;BME280;43720;47.462;19.030;2022-09-06T06:39:05;100891.34;;;19.21;52.25
57904;BME280;43720;47.462;19.030;2022-09-06T06:42:09;100896.56;;;19.24;50.58
57904;BME280;43720;47.462;19.030;2022-09-06T06:45:12;100900.03;;;19.30;52.16
57904;BME280;43720;47.462;19.030;2022-09-06T06:48:14;100894.69;;;19.34;50.70
57904;BME280;43720;47.462;19.030;2022-09-06T06:51:18;100895.53;;;19.37;50.56
57904;BME280;43720;47.462;19.030;2022-09-06T06:54:21;100898.97;;;19.44;50.19
57904;BME280;43720;47.462;19.030;2022-09-06T06:57:23;100907.75;;;19.47;50.79
57904;BME280;43720;47.462;19.030;2022-09-06T07:00:25;100912.09;;;19.53;52.35
57904;BME280;43720;47.462;19.030;2022-09-06T07:03:29;100906.69;;;19.64;51.67
57904;BME280;43720;47.462;19.030;2022-09-06T07:06:45;100908.41;;;19.68;51.29
57904;BME280;43720;47.462;19.030;2022-09-06T07:10:07;100914.34;;;19.84;50.76
57904;BME280;43720;47.462;19.030;2022-09-06T07:13:30;100905.31;;;19.95;50.32
57904;BME280;43720;47.462;19.030;2022-09-06T07:16:34;100906.12;;;20.00;50.66
57904;BME280;43720;47.462;19.030;2022-09-06T07:19:37;100905.28;;;19.98;50.20
57904;BME280;43720;47.462;19.030;2022-09-06T07:23:00;100903.38;;;20.07;50.44
57904;BME280;43720;47.462;19.030;2022-09-06T07:26:25;100916.47;;;20.17;51.67
57904;BME280;43720;47.462;19.030;2022-09-06T07:29:28;100912.88;;;20.21;49.67
57904;BME280;43720;47.462;19.030;2022-09-06T07:32:33;100918.09;;;20.26;51.10
57904;BME280;43720;47.462;19.030;2022-09-06T07:35:36;100911.66;;;20.41;51.82
57904;BME280;43720;47.462;19.030;2022-09-06T07:38:38;100910.50;;;20.56;50.86
57904;BME280;43720;47.462;19.030;2022-09-06T07:41:41;100912.03;;;20.70;51.69
57904;BME280;43720;47.462;19.030;2022-09-06T07:44:44;100905.84;;;20.70;49.74
57904;BME280;43720;47.462;19.030;2022-09-06T07:47:56;100910.41;;;20.62;48.80
57904;BME280;43720;47.462;19.030;2022-09-06T07:51:10;100908.63;;;20.62;49.53
57904;BME280;43720;47.462;19.030;2022-09-06T07:54:13;100910.97;;;20.79;48.25
57904;BME280;43720;47.462;19.030;2022-09-06T07:57:32;100914.38;;;20.87;48.05
57904;BME280;43720;47.462;19.030;2022-09-06T08:00:34;100904.47;;;20.95;48.29
57904;BME280;43720;47.462;19.030;2022-09-06T08:03:37;100913.78;;;21.16;48.66
57904;BME280;43720;47.462;19.030;2022-09-06T08:06:41;100912.78;;;21.22;48.45
57904;BME280;43720;47.462;19.030;2022-09-06T08:10:05;100916.13;;;21.32;49.29
57904;BME280;43720;47.462;19.030;2022-09-06T08:13:07;100912.66;;;21.28;49.15
57904;BME280;43720;47.462;19.030;2022-09-06T08:16:11;100912.59;;;21.31;48.25
57904;BME280;43720;47.462;19.030;2022-09-06T08:19:13;100915.06;;;21.42;49.92
57904;BME280;43720;47.462;19.030;2022-09-06T08:22:15;100913.62;;;21.66;47.86
57904;BME280;43720;47.462;19.030;2022-09-06T08:25:18;100896.38;;;21.82;48.25
57904;BME280;43720;47.462;19.030;2022-09-06T08:28:20;100896.56;;;21.76;47.73
57904;BME280;43720;47.462;19.030;2022-09-06T08:31:28;100893.34;;;21.60;48.27
57904;BME280;43720;47.462;19.030;2022-09-06T08:34:33;100894.37;;;21.55;49.35
57904;BME280;43720;47.462;19.030;2022-09-06T08:37:35;100895.00;;;21.64;48.64
57904;BME280;43720;47.462;19.030;2022-09-06T08:40:38;100893.84;;;21.78;48.66
57904;BME280;43720;47.462;19.030;2022-09-06T08:43:52;100891.63;;;21.95;48.62
57904;BME280;43720;47.462;19.030;2022-09-06T08:47:19;100886.78;;;22.14;48.96
57904;BME280;43720;47.462;19.030;2022-09-06T08:50:24;100888.03;;;22.33;46.49
57904;BME280;43720;47.462;19.030;2022-09-06T08:53:29;100889.69;;;22.39;46.59
57904;BME280;43720;47.462;19.030;2022-09-06T08:56:36;100882.16;;;22.55;46.04
57904;BME280;43720;47.462;19.030;2022-09-06T08:59:40;100881.75;;;22.70;46.33
57904;BME280;43720;47.462;19.030;2022-09-06T09:02:48;100888.31;;;22.89;46.56
57904;BME280;43720;47.462;19.030;2022-09-06T09:05:52;100876.38;;;23.04;45.97
57904;BME280;43720;47.462;19.030;2022-09-06T09:09:11;100883.81;;;22.91;46.32
57904;BME280;43720;47.462;19.030;2022-09-06T09:12:21;100872.16;;;22.95;45.99
57904;BME280;43720;47.462;19.030;2022-09-06T09:15:24;100866.75;;;22.99;46.38
57904;BME280;43720;47.462;19.030;2022-09-06T09:18:31;100872.41;;;23.17;46.84
57904;BME280;43720;47.462;19.030;2022-09-06T09:21:38;100868.41;;;23.32;45.49
57904;BME280;43720;47.462;19.030;2022-09-06T09:24:41;100873.03;;;23.27;46.10
57904;BME280;43720;47.462;19.030;2022-09-06T09:27:44;100873.97;;;23.25;46.46
57904;BME280;43720;47.462;19.030;2022-09-06T09:30:55;100860.72;;;23.22;47.51
57904;BME280;43720;47.462;19.030;2022-09-06T09:33:58;100855.62;;;23.14;47.48
57904;BME280;43720;47.462;19.030;2022-09-06T09:37:19;100847.22;;;23.28;46.68
57904;BME280;43720;47.462;19.030;2022-09-06T09:40:56;100845.19;;;23.36;48.64
57904;BME280;43720;47.462;19.030;2022-09-06T09:44:02;100831.44;;;23.48;47.38
57904;BME280;43720;47.462;19.030;2022-09-06T09:47:38;100826.84;;;23.53;46.91
57904;BME280;43720;47.462;19.030;2022-09-06T09:50:48;100822.91;;;23.65;46.44
57904;BME280;43720;47.462;19.030;2022-09-06T09:53:57;100819.09;;;23.74;46.52
57904;BME280;43720;47.462;19.030;2022-09-06T09:57:00;100822.41;;;23.82;46.23
57904;BME280;43720;47.462;19.030;2022-09-06T10:00:02;100822.75;;;23.98;45.92
57904;BME280;43720;47.462;19.030;2022-09-06T10:03:19;100807.69;;;23.95;44.97
57904;BME280;43720;47.462;19.030;2022-09-06T10:06:29;100806.91;;;23.91;45.46
57904;BME280;43720;47.462;19.030;2022-09-06T10:10:03;100800.13;;;24.08;44.70
57904;BME280;43720;47.462;19.030;2022-09-06T10:16:40;100795.34;;;24.17;44.67
57904;BME280;43720;47.462;19.030;2022-09-06T10:19:44;100783.50;;;24.00;46.20
57904;BME280;43720;47.462;19.030;2022-09-06T10:26:10;100789.34;;;24.11;47.07
57904;BME280;43720;47.462;19.030;2022-09-06T10:29:29;100776.75;;;24.14;46.97
57904;BME280;43720;47.462;19.030;2022-09-06T10:32:50;100776.66;;;24.43;44.74
57904;BME280;43720;47.462;19.030;2022-09-06T10:35:57;100775.78;;;24.42;45.19
57904;BME280;43720;47.462;19.030;2022-09-06T10:39:09;100775.50;;;24.50;44.45
57904;BME280;43720;47.462;19.030;2022-09-06T10:45:56;100763.19;;;24.69;45.51
57904;BME280;43720;47.462;19.030;2022-09-06T10:48:59;100758.19;;;24.60;44.93
57904;BME280;43720;47.462;19.030;2022-09-06T10:52:06;100749.72;;;24.72;44.57
57904;BME280;43720;47.462;19.030;2022-09-06T10:55:09;100750.41;;;24.77;44.88
57904;BME280;43720;47.462;19.030;2022-09-06T10:58:23;100739.75;;;24.99;43.92
57904;BME280;43720;47.462;19.030;2022-09-06T11:01:40;100753.41;;;25.15;44.15
57904;BME280;43720;47.462;19.030;2022-09-06T11:04:45;100750.00;;;25.33;44.63
57904;BME280;43720;47.462;19.030;2022-09-06T11:08:19;100760.22;;;25.46;45.12
57904;BME280;43720;47.462;19.030;2022-09-06T11:11:50;100756.34;;;25.53;44.69
57904;BME280;43720;47.462;19.030;2022-09-06T11:14:53;100755.41;;;25.54;44.44
57904;BME280;43720;47.462;19.030;2022-09-06T11:18:10;100749.53;;;25.66;44.71
57904;BME280;43720;47.462;19.030;2022-09-06T11:22:01;100745.37;;;25.81;44.76
57904;BME280;43720;47.462;19.030;2022-09-06T11:28:10;100737.88;;;25.89;43.83
57904;BME280;43720;47.462;19.030;2022-09-06T11:31:28;100734.97;;;25.94;44.94
57904;BME280;43720;47.462;19.030;2022-09-06T11:34:56;100726.28;;;26.09;44.46
57904;BME280;43720;47.462;19.030;2022-09-06T11:41:17;100714.97;;;26.62;43.68
57904;BME280;43720;47.462;19.030;2022-09-06T11:51:41;100707.69;;;26.83;41.93
57904;BME280;43720;47.462;19.030;2022-09-06T11:54:45;100703.72;;;26.92;40.97
57904;BME280;43720;47.462;19.030;2022-09-06T11:57:53;100696.69;;;26.89;41.04
57904;BME280;43720;47.462;19.030;2022-09-06T12:04:14;100693.16;;;27.25;41.32
57904;BME280;43720;47.462;19.030;2022-09-06T12:07:16;100686.53;;;27.15;41.70
57904;BME280;43720;47.462;19.030;2022-09-06T12:19:59;100666.56;;;27.01;39.69
57904;BME280;43720;47.462;19.030;2022-09-06T12:26:44;100657.41;;;27.24;40.72
57904;BME280;43720;47.462;19.030;2022-09-06T12:30:00;100661.50;;;27.49;39.83
57904;BME280;43720;47.462;19.030;2022-09-06T12:33:26;100655.53;;;27.61;38.94
57904;BME280;43720;47.462;19.030;2022-09-06T12:36:31;100644.78;;;27.61;38.54
57904;BME280;43720;47.462;19.030;2022-09-06T12:39:33;100640.53;;;27.57;37.49
57904;BME280;43720;47.462;19.030;2022-09-06T12:42:36;100636.00;;;27.40;37.27
57904;BME280;43720;47.462;19.030;2022-09-06T12:45:50;100623.06;;;27.31;36.19
57904;BME280;43720;47.462;19.030;2022-09-06T12:49:08;100628.25;;;27.17;37.89
57904;BME280;43720;47.462;19.030;2022-09-06T12:52:14;100624.56;;;27.19;38.91
57904;BME280;43720;47.462;19.030;2022-09-06T12:55:26;100618.00;;;27.25;39.39
57904;BME280;43720;47.462;19.030;2022-09-06T12:58:29;100628.69;;;27.26;39.39
57904;BME280;43720;47.462;19.030;2022-09-06T13:01:33;100624.66;;;27.35;38.99
57904;BME280;43720;47.462;19.030;2022-09-06T13:04:41;100617.63;;;27.50;39.97
57904;BME280;43720;47.462;19.030;2022-09-06T13:07:51;100608.84;;;27.29;39.15
57904;BME280;43720;47.462;19.030;2022-09-06T13:10:54;100599.94;;;27.10;39.47
57904;BME280;43720;47.462;19.030;2022-09-06T13:13:57;100598.44;;;27.23;40.53
57904;BME280;43720;47.462;19.030;2022-09-06T13:17:00;100593.69;;;27.11;40.63
57904;BME280;43720;47.462;19.030;2022-09-06T13:20:14;100587.22;;;27.15;40.51
57904;BME280;43720;47.462;19.030;2022-09-06T13:23:25;100593.69;;;27.11;39.97
57904;BME280;43720;47.462;19.030;2022-09-06T13:26:38;100588.34;;;26.92;40.83
57904;BME280;43720;47.462;19.030;2022-09-06T13:32:58;100581.84;;;26.41;40.77
57904;BME280;43720;47.462;19.030;2022-09-06T13:36:26;100572.87;;;26.42;41.89
57904;BME280;43720;47.462;19.030;2022-09-06T13:39:40;100573.75;;;26.23;42.06
57904;BME280;43720;47.462;19.030;2022-09-06T13:42:42;100572.03;;;26.22;43.13
57904;BME280;43720;47.462;19.030;2022-09-06T13:45:45;100573.41;;;26.12;42.10
57904;BME280;43720;47.462;19.030;2022-09-06T13:48:48;100565.44;;;26.10;43.43
57904;BME280;43720;47.462;19.030;2022-09-06T13:51:51;100558.63;;;26.03;43.20
57904;BME280;43720;47.462;19.030;2022-09-06T13:54:54;100558.75;;;26.00;43.72
57904;BME280;43720;47.462;19.030;2022-09-06T13:57:56;100557.91;;;26.00;44.95
57904;BME280;43720;47.462;19.030;2022-09-06T14:00:58;100557.25;;;25.95;44.56
57904;BME280;43720;47.462;19.030;2022-09-06T14:04:02;100554.84;;;25.89;44.81
57904;BME280;43720;47.462;19.030;2022-09-06T14:07:05;100556.06;;;25.81;45.33
57904;BME280;43720;47.462;19.030;2022-09-06T14:10:08;100552.91;;;25.72;44.96
57904;BME280;43720;47.462;19.030;2022-09-06T14:13:11;100553.41;;;25.61;45.37
57904;BME280;43720;47.462;19.030;2022-09-06T14:16:14;100549.25;;;25.54;45.13
57904;BME280;43720;47.462;19.030;2022-09-06T14:19:16;100545.78;;;25.52;44.94
57904;BME280;43720;47.462;19.030;2022-09-06T14:22:18;100542.56;;;25.44;46.26
57904;BME280;43720;47.462;19.030;2022-09-06T14:25:21;100540.56;;;25.49;45.49
57904;BME280;43720;47.462;19.030;2022-09-06T14:28:24;100535.34;;;25.46;45.92
57904;BME280;43720;47.462;19.030;2022-09-06T14:31:27;100533.88;;;25.38;46.67
57904;BME280;43720;47.462;19.030;2022-09-06T14:34:30;100540.72;;;25.25;46.55
57904;BME280;43720;47.462;19.030;2022-09-06T14:37:32;100536.59;;;25.17;46.74
57904;BME280;43720;47.462;19.030;2022-09-06T14:40:36;100528.87;;;25.09;47.28
57904;BME280;43720;47.462;19.030;2022-09-06T14:43:41;100529.09;;;25.04;47.21
57904;BME280;43720;47.462;19.030;2022-09-06T14:46:44;100530.88;;;25.04;47.62
57904;BME280;43720;47.462;19.030;2022-09-06T14:49:49;100535.63;;;24.97;48.26
57904;BME280;43720;47.462;19.030;2022-09-06T14:52:52;100536.78;;;24.92;48.30
57904;BME280;43720;47.462;19.030;2022-09-06T14:56:00;100532.47;;;24.87;48.20
57904;BME280;43720;47.462;19.030;2022-09-06T14:59:02;100536.09;;;24.86;47.86
57904;BME280;43720;47.462;19.030;2022-09-06T15:02:04;100535.28;;;24.84;47.64
57904;BME280;43720;47.462;19.030;2022-09-06T15:05:07;100541.81;;;24.77;48.00
57904;BME280;43720;47.462;19.030;2022-09-06T15:08:09;100541.06;;;24.74;48.28
57904;BME280;43720;47.462;19.030;2022-09-06T15:11:12;100548.44;;;24.69;48.56
57904;BME280;43720;47.462;19.030;2022-09-06T15:17:21;100555.78;;;24.63;51.45
57904;BME280;43720;47.462;19.030;2022-09-06T15:20:23;100565.28;;;24.49;54.39
57904;BME280;43720;47.462;19.030;2022-09-06T15:23:26;100568.72;;;24.29;56.88
57904;BME280;43720;47.462;19.030;2022-09-06T15:26:29;100565.78;;;24.13;55.58
57904;BME280;43720;47.462;19.030;2022-09-06T15:29:31;100573.22;;;24.05;58.03
